Aérodrome :
LOGIN :

S'inscrire | Disclaimer

   EN    FR    IT 

 










Légende :    VFR   VFR Marginal   IFR   IFR Intensif   IFR Très Intensif
Visi : 
Plafond : 
>= 8 km
>= 3000ft
5 à 8 km
1000 à 3000 ft
1500m à 5 km
500 à 1000 ft
800 à 1500m
200 à 500 ft
< 800m
< 200 ft
Symboles :   Orages  Brouillard  Fortes neiges  Fortes précipitations  Vent > 20 kt
SIGMETs :   Divers  Orages  Givrage  Turbulence  Onde Orograph.  Cendres Volcan.






- Altitude de l'aérodrome : 218 ft


EGYD - RAF Cranwell

DERNIER METAR :
  • 030750Z 36004KT 9999 FEW012 15/11 Q1013 NOSIG RMK BLU BLU

METARs EXPIRÉS :
  • 030721Z 35005KT 9999 FEW023 15/11 Q1013 NOSIG RMK BLU BLU
  • 030650Z 35006KT 8000 HZ FEW023 14/11 Q1013 NOSIG RMK BLU BLU
  • 030550Z 21003KT 6000 BR FEW014 SCT023 12/11 Q1013 BECMG 9999 NSW FEW023 RMK WHT BECMG BLU
  • 030450Z AUTO 26003KT 8000 // FEW013/// 09/09 Q1013

TAF TAF EGYD
Valide du 03 à 06h jusqu'au 03 à 15h UTC


030532Z 0306/0315 VRB03KT 9999 FEW018
PROB30 0306/0308 5000 BR
PROB30
TEMPO 0306/0309 SCT012
PROB40
TEMPO 0309/0311 SCT018
PROB30
TEMPO 0312/0315 7000 SHRA



MET'MAP, la Météo Aéronautique d'un coup d'oeil ! - Copyright ORBIFLY Décembre 2007 - Disclaimer

ORBIFLY MET'MAP TEAM :

Programmation & Développement : Alexandra Zaïnal
Sur une idée originale de : Baudouin d'Aumeries
Assistance à la programmation : Marc-Olivier Méhu
Soutien technique & logistique : Manuel Goepfert

Contact : metmap@orbifly.com




SOURCES & CREDITS :

   NOAA